< Typhoon 198513 1985 Season Typhoon 198515 >
Typhoon 198514 (RUBY)
General InformationTrack Information on Google MapsDetailed Wind InformationList of All Images || Disaster Info.ResourceGoogle EarthGE AnimationAtom FeedGeoJSON
Detalied Best Track (Time Zone = UTC)
Year Month Day Hour Lat. Long. Pressure (hPa) Wind (kt) Class Image Chart
1985 8 26 00 19.5 136.7 1004 0 2 Image Chart
1985 8 26 06 20.0 137.5 1002 0 2 Image Chart
1985 8 26 12 20.3 138.7 1002 0 2 Image Chart
1985 8 26 18 21.2 138.7 1002 0 2 Image Chart
1985 8 27 00 22.0 139.0 1002 0 2 Image Chart
1985 8 27 06 22.5 140.0 1000 0 2 Image Chart
1985 8 27 12 23.0 141.3 998 0 2 Image Chart
1985 8 27 18 23.3 142.6 996 0 2 Image Chart
1985 8 28 00 23.9 143.7 990 45 3 Image Chart
1985 8 28 06 24.7 143.8 985 50 4 Image Chart
1985 8 28 12 25.5 143.8 985 55 4 Image Chart
1985 8 28 18 26.6 143.3 985 55 4 Image Chart
1985 8 29 00 27.9 142.7 990 50 4 Image Chart
1985 8 29 06 29.0 142.0 994 45 3 Image Chart
1985 8 29 12 30.1 141.2 994 45 3 Image Chart
1985 8 29 18 31.2 140.4 996 45 3 Image Chart
1985 8 30 00 32.3 140.0 994 45 3 Image Chart
1985 8 30 06 33.6 139.7 990 50 4 Image Chart
1985 8 30 12 34.8 139.5 992 50 4 Image Chart
1985 8 30 18 36.3 140.1 996 40 3 Image Chart
1985 8 31 00 38.0 141.3 998 35 3 Image Chart
1985 8 31 06 39.3 142.6 998 35 3 Image Chart
1985 8 31 12 40.0 145.0 998 35 3 Image Chart
1985 8 31 18 40.6 147.5 998 40 3 Image Chart
1985 9 1 00 41.0 151.0 1000 0 6 Image Chart
1985 9 1 06 41.0 154.0 1000 0 6 Image Chart
1985 9 1 12 42.0 158.0 1000 0 6 Image Chart
1985 9 1 18 43.0 164.0 1000 0 6 Image Chart
1985 9 2 00 44.0 167.0 996 0 6 Image Chart
1985 9 2 06 44.0 170.0 992 0 6 Image Chart
1985 9 2 12 45.0 171.0 990 0 6 Image Chart
1985 9 2 18 46.0 172.0 988 0 6 Image Chart
1985 9 3 00 46.0 173.0 988 0 6 Image Chart
1985 9 3 06 47.0 175.0 988 0 6 Image Chart
1985 9 3 12 48.0 177.0 992 0 6 Image Chart
1985 9 3 18 49.0 179.0 992 0 6 Image Chart
1985 9 4 00 50.0 180.0 996 0 6 Image Chart
Japan Meteorological Agency Best Track Data | Correction Date : 1992-10-21
< Typhoon 198513 1985 Season Typhoon 198515 >

Help